Pacific Pilot IV — CZ3537 — position and weather

sailwx.info

Track history (hours):
 
Tides and Currents Weather Stations Pressure Air Temp Water Temp Dewpoint Dewpoint Depression Visibility Wind Speed Wind Dir Waves Ship Positions

Pacific Pilot IV

Last reported at 2014-Aug-28 16:33 UTC. Time now 2014-Aug-28 23:24 UTC.
Position N 54°18' W 130°21'.

Length 20 m.

Type: Pilot. MMSI: 316006722.

Date/timePositionNaut miles runAvg speedWind from/ knotsBaromVisibWave heightAir tempDewpointWater temp
2014-Aug-28 16:33N 54°18' W 130°21'0 0.0
2014-Aug-28 15:33N 54°18' W 130°21'0 0.0
2014-Aug-28 14:33N 54°18' W 130°21'0 0.0
2014-Aug-28 13:33N 54°18' W 130°21'0 0.0
2014-Aug-28 12:33N 54°18' W 130°21'0 0.0
2014-Aug-28 11:33N 54°18' W 130°21'0 0.0
2014-Aug-28 10:33N 54°18' W 130°21'0 0.0
2014-Aug-28 09:33N 54°18' W 130°21'0 0.0
2014-Aug-28 08:33N 54°18' W 130°21'0 0.0
2014-Aug-28 07:33N 54°18' W 130°21'0 0.0
2014-Aug-28 06:33N 54°18' W 130°21'0 0.0
2014-Aug-28 05:33N 54°18' W 130°21'0 0.0
2014-Aug-28 04:33N 54°18' W 130°21'0 0.0
2014-Aug-28 03:33N 54°18' W 130°21'0 0.0
2014-Aug-28 02:33N 54°18' W 130°21'0 0.0
2014-Aug-28 01:33N 54°18' W 130°21'0 0.0
2014-Aug-28 00:33N 54°18' W 130°21'0 0.0
2014-Aug-27 18:04N 54°18' W 130°21'0 0.0
2014-Aug-27 17:33N 54°18' W 130°21'0 0.0
2014-Aug-27 16:33N 54°18' W 130°21'0 0.0
2014-Aug-27 15:33N 54°18' W 130°21'0 0.0
2014-Aug-27 14:33N 54°18' W 130°21'0 0.0
2014-Aug-27 13:33N 54°18' W 130°21'0 0.0
2014-Aug-27 12:33N 54°18' W 130°21'0 0.0
2014-Aug-27 11:33N 54°18' W 130°21'0 0.0
2014-Aug-27 10:33N 54°18' W 130°21'0 0.0
2014-Aug-27 09:33N 54°18' W 130°21'0 0.0
2014-Aug-27 08:33N 54°18' W 130°21'0 0.0
2014-Aug-27 07:33N 54°18' W 130°21'0 0.0
2014-Aug-27 06:33N 54°18' W 130°21'0 0.0
2014-Aug-27 05:33N 54°18' W 130°21'0 0.0
2014-Aug-27 04:33N 54°18' W 130°21'0 0.0
2014-Aug-27 03:33N 54°18' W 130°21'0 0.0
2014-Aug-27 02:33N 54°18' W 130°21'0 0.0
2014-Aug-27 01:33N 54°18' W 130°21'0 0.0
2014-Aug-26 19:24N 54°18' W 130°21'  
2014-Aug-23 23:22N 54°18' W 130°21'0 0.0
2014-Aug-23 22:33N 54°18' W 130°21'0 0.0
2014-Aug-23 21:33N 54°18' W 130°21'0 0.0
2014-Aug-23 20:33N 54°18' W 130°21'0 0.0
2014-Aug-23 19:33N 54°18' W 130°21'0 0.0
2014-Aug-23 03:20N 54°18' W 130°21'0 0.0
2014-Aug-23 02:33N 54°18' W 130°21'0 0.0
2014-Aug-23 01:33N 54°18' W 130°21'0 0.0
2014-Aug-23 00:33N 54°18' W 130°21'0 0.0
2014-Aug-22 23:33N 54°18' W 130°21'0 0.0
2014-Aug-22 22:33N 54°18' W 130°21'0 0.0
2014-Aug-22 21:33N 54°18' W 130°21'0 0.0
2014-Aug-22 20:33N 54°18' W 130°21'0 0.0
2014-Aug-22 19:33N 54°18' W 130°21'0 0.0
2014-Aug-22 18:33N 54°18' W 130°21'0 0.0
2014-Aug-22 17:33N 54°18' W 130°21'0 0.0
2014-Aug-22 16:33N 54°18' W 130°21'0 0.0
2014-Aug-22 15:33N 54°18' W 130°21'0 0.0
2014-Aug-22 14:33N 54°18' W 130°21'0 0.0
2014-Aug-22 13:33N 54°18' W 130°21'0 0.0
2014-Aug-22 12:33N 54°18' W 130°21'0 0.0
2014-Aug-22 11:33N 54°18' W 130°21'0 0.0
2014-Aug-22 10:33N 54°18' W 130°21'0 0.0
2014-Aug-22 09:33N 54°18' W 130°21'0 0.0
2014-Aug-22 08:33N 54°18' W 130°21'0 0.0
2014-Aug-22 07:33N 54°18' W 130°21'0 0.0
2014-Aug-22 06:33N 54°18' W 130°21'0 0.0
2014-Aug-22 05:33N 54°18' W 130°21'0 0.0
2014-Aug-22 04:33N 54°18' W 130°21'0 0.0
2014-Aug-22 03:33N 54°18' W 130°21'0 0.0
2014-Aug-22 02:33N 54°18' W 130°21'0 0.0
2014-Aug-22 01:33N 54°18' W 130°21'0 0.0
2014-Aug-22 00:33N 54°18' W 130°21'0 0.0
2014-Aug-21 23:33N 54°18' W 130°21'0 0.0
2014-Aug-21 22:33N 54°18' W 130°21'2 1.6
2014-Aug-21 21:33N 54°16' W 130°22'2 1.6
2014-Aug-21 20:33N 54°18' W 130°21'0 0.0
2014-Aug-21 19:33N 54°18' W 130°21'0 0.0
2014-Aug-21 18:33N 54°18' W 130°21'1 0.5
2014-Aug-21 17:33N 54°18' W 130°21'1 0.5
2014-Aug-21 16:33N 54°18' W 130°21'0 0.0
2014-Aug-21 15:33N 54°18' W 130°21'1412.1
2014-Aug-21 14:23N 54°17' W 130°46'7 8.9
2014-Aug-21 13:33N 54°14' W 130°34'8 7.7
2014-Aug-21 12:32N 54°14' W 130°21'3 3.3
2014-Aug-21 11:33N 54°18' W 130°21'0 0.0
2014-Aug-21 10:33N 54°18' W 130°21'0 0.0
2014-Aug-21 09:33N 54°18' W 130°21'0 0.0
2014-Aug-21 08:33N 54°18' W 130°21'5 5.4
2014-Aug-21 07:33N 54°19' W 130°30'1616.1
2014-Aug-21 06:33N 54°20' W 130°58'6 5.7
2014-Aug-21 05:33N 54°19' W 130°49'1616.0
2014-Aug-21 04:34N 54°18' W 130°21'5 4.9
2014-Aug-21 03:33N 54°19' W 130°30'1110.8
2014-Aug-21 02:33N 54°19' W 130°48'1515.0
2014-Aug-21 01:33N 54°18' W 130°22'1 0.8
2014-Aug-21 00:34N 54°18' W 130°21'0 0.0
2014-Aug-20 23:33N 54°18' W 130°21'0 0.0
2014-Aug-20 22:34N 54°18' W 130°21'0 0.0
2014-Aug-20 21:34N 54°18' W 130°21'0 0.0
2014-Aug-20 20:33N 54°18' W 130°21'0 0.0
2014-Aug-20 19:33N 54°18' W 130°21'0 0.0
2014-Aug-20 18:33N 54°18' W 130°21'0 0.0
2014-Aug-20 17:33N 54°18' W 130°21'2 2.0
2014-Aug-20 16:33N 54°19' W 130°19'2 2.1
2014-Aug-20 15:34N 54°18' W 130°21'0 0.0
2014-Aug-20 14:34N 54°18' W 130°21'0 0.0
2014-Aug-20 13:34N 54°18' W 130°21'0 0.0
2014-Aug-20 12:34N 54°18' W 130°21'0 0.0
2014-Aug-20 11:33N 54°18' W 130°21'0 0.0
2014-Aug-20 10:33N 54°18' W 130°21'0 0.0
2014-Aug-20 09:34N 54°18' W 130°21'0 0.0
2014-Aug-20 08:33N 54°18' W 130°21'0 0.0
2014-Aug-20 07:33N 54°18' W 130°21'0 0.0
2014-Aug-20 06:34N 54°18' W 130°21'0 0.0
2014-Aug-20 05:34N 54°18' W 130°21'0 0.0
2014-Aug-20 04:34N 54°18' W 130°21'1414.3
2014-Aug-20 03:33N 54°17' W 130°46'5 5.2
2014-Aug-20 02:33N 54°17' W 130°37'6 6.5
2014-Aug-20 01:33N 54°16' W 130°48'0 0.4
2014-Aug-20 00:31N 54°16' W 130°48'1616.4
2014-Aug-19 23:33N 54°15' W 130°21'2 2.3
2014-Aug-19 22:33N 54°18' W 130°21'0 0.0
2014-Aug-19 21:33N 54°18' W 130°21'0 0.0
2014-Aug-19 20:33N 54°18' W 130°21'0 0.0
2014-Aug-19 19:33N 54°18' W 130°21'12 6.1
2014-Aug-19 17:33N 54°17' W 130°42'1212.2
2014-Aug-19 16:33N 54°18' W 130°21'0 0.0
2014-Aug-19 15:34N 54°18' W 130°21'0 0.0
2014-Aug-19 14:33N 54°18' W 130°21'0 0.0
2014-Aug-19 13:34N 54°18' W 130°21'0 0.0
2014-Aug-19 12:33N 54°18' W 130°21'0 0.0
2014-Aug-19 11:34N 54°18' W 130°21'0 0.0
2014-Aug-19 10:33N 54°18' W 130°21'0 0.0
2014-Aug-19 09:34N 54°18' W 130°21'0 0.0
2014-Aug-19 08:33N 54°18' W 130°21'2 1.8
2014-Aug-19 07:33N 54°19' W 130°24'2016.0
2014-Aug-19 06:19N 54°19' W 130°58'911.9
2014-Aug-19 05:33N 54°16' W 130°43'1312.7
2014-Aug-19 04:33N 54°18' W 130°21'0 0.0
2014-Aug-19 03:33N 54°18' W 130°21'0 0.0
2014-Aug-19 02:33N 54°18' W 130°21'0 0.0
2014-Aug-19 01:33N 54°18' W 130°21'0 0.0
2014-Aug-19 00:33N 54°18' W 130°21'0 0.0
2014-Aug-18 23:33N 54°18' W 130°21'0 0.0
2014-Aug-18 22:33N 54°18' W 130°21'0 0.0
2014-Aug-18 21:33N 54°18' W 130°21'0 0.0
2014-Aug-18 20:33N 54°18' W 130°21'0 0.0
2014-Aug-18 19:33N 54°18' W 130°21'0 0.0
2014-Aug-18 18:33N 54°18' W 130°21'0 0.0
2014-Aug-18 17:33N 54°18' W 130°21'  
Track history (hours):
 
Tides and Currents Weather Stations Pressure Air Temp Water Temp Dewpoint Dewpoint Depression Visibility Wind Speed Wind Dir Waves Ship Positions

Pacific Pilot IV

Last reported at 2014-Aug-28 16:33 UTC. Time now 2014-Aug-28 23:24 UTC.
Position N 54°18' W 130°21'.

Length 20 m.

Type: Pilot. MMSI: 316006722.

Date/timePositionNaut miles runAvg speedWind from/ knotsBaromVisibWave heightAir tempDewpointWater temp
2014-Aug-28 16:33N 54°18' W 130°21'0 0.0
2014-Aug-28 15:33N 54°18' W 130°21'0 0.0
2014-Aug-28 14:33N 54°18' W 130°21'0 0.0
2014-Aug-28 13:33N 54°18' W 130°21'0 0.0
2014-Aug-28 12:33N 54°18' W 130°21'0 0.0
2014-Aug-28 11:33N 54°18' W 130°21'0 0.0
2014-Aug-28 10:33N 54°18' W 130°21'0 0.0
2014-Aug-28 09:33N 54°18' W 130°21'0 0.0
2014-Aug-28 08:33N 54°18' W 130°21'0 0.0
2014-Aug-28 07:33N 54°18' W 130°21'0 0.0
2014-Aug-28 06:33N 54°18' W 130°21'0 0.0
2014-Aug-28 05:33N 54°18' W 130°21'0 0.0
2014-Aug-28 04:33N 54°18' W 130°21'0 0.0
2014-Aug-28 03:33N 54°18' W 130°21'0 0.0
2014-Aug-28 02:33N 54°18' W 130°21'0 0.0
2014-Aug-28 01:33N 54°18' W 130°21'0 0.0
2014-Aug-28 00:33N 54°18' W 130°21'0 0.0
2014-Aug-27 18:04N 54°18' W 130°21'0 0.0
2014-Aug-27 17:33N 54°18' W 130°21'0 0.0
2014-Aug-27 16:33N 54°18' W 130°21'0 0.0
2014-Aug-27 15:33N 54°18' W 130°21'0 0.0
2014-Aug-27 14:33N 54°18' W 130°21'0 0.0
2014-Aug-27 13:33N 54°18' W 130°21'0 0.0
2014-Aug-27 12:33N 54°18' W 130°21'0 0.0
2014-Aug-27 11:33N 54°18' W 130°21'0 0.0
2014-Aug-27 10:33N 54°18' W 130°21'0 0.0
2014-Aug-27 09:33N 54°18' W 130°21'0 0.0
2014-Aug-27 08:33N 54°18' W 130°21'0 0.0
2014-Aug-27 07:33N 54°18' W 130°21'0 0.0
2014-Aug-27 06:33N 54°18' W 130°21'0 0.0
2014-Aug-27 05:33N 54°18' W 130°21'0 0.0
2014-Aug-27 04:33N 54°18' W 130°21'0 0.0
2014-Aug-27 03:33N 54°18' W 130°21'0 0.0
2014-Aug-27 02:33N 54°18' W 130°21'0 0.0
2014-Aug-27 01:33N 54°18' W 130°21'0 0.0
2014-Aug-26 19:24N 54°18' W 130°21'  
2014-Aug-23 23:22N 54°18' W 130°21'0 0.0
2014-Aug-23 22:33N 54°18' W 130°21'0 0.0
2014-Aug-23 21:33N 54°18' W 130°21'0 0.0
2014-Aug-23 20:33N 54°18' W 130°21'0 0.0
2014-Aug-23 19:33N 54°18' W 130°21'0 0.0
2014-Aug-23 03:20N 54°18' W 130°21'0 0.0
2014-Aug-23 02:33N 54°18' W 130°21'0 0.0
2014-Aug-23 01:33N 54°18' W 130°21'0 0.0
2014-Aug-23 00:33N 54°18' W 130°21'0 0.0
2014-Aug-22 23:33N 54°18' W 130°21'0 0.0
2014-Aug-22 22:33N 54°18' W 130°21'0 0.0
2014-Aug-22 21:33N 54°18' W 130°21'0 0.0
2014-Aug-22 20:33N 54°18' W 130°21'0 0.0
2014-Aug-22 19:33N 54°18' W 130°21'0 0.0
2014-Aug-22 18:33N 54°18' W 130°21'0 0.0
2014-Aug-22 17:33N 54°18' W 130°21'0 0.0
2014-Aug-22 16:33N 54°18' W 130°21'0 0.0
2014-Aug-22 15:33N 54°18' W 130°21'0 0.0
2014-Aug-22 14:33N 54°18' W 130°21'0 0.0
2014-Aug-22 13:33N 54°18' W 130°21'0 0.0
2014-Aug-22 12:33N 54°18' W 130°21'0 0.0
2014-Aug-22 11:33N 54°18' W 130°21'0 0.0
2014-Aug-22 10:33N 54°18' W 130°21'0 0.0
2014-Aug-22 09:33N 54°18' W 130°21'0 0.0
2014-Aug-22 08:33N 54°18' W 130°21'0 0.0
2014-Aug-22 07:33N 54°18' W 130°21'0 0.0
2014-Aug-22 06:33N 54°18' W 130°21'0 0.0
2014-Aug-22 05:33N 54°18' W 130°21'0 0.0
2014-Aug-22 04:33N 54°18' W 130°21'0 0.0
2014-Aug-22 03:33N 54°18' W 130°21'0 0.0
2014-Aug-22 02:33N 54°18' W 130°21'0 0.0
2014-Aug-22 01:33N 54°18' W 130°21'0 0.0
2014-Aug-22 00:33N 54°18' W 130°21'0 0.0
2014-Aug-21 23:33N 54°18' W 130°21'0 0.0
2014-Aug-21 22:33N 54°18' W 130°21'2 1.6
2014-Aug-21 21:33N 54°16' W 130°22'2 1.6
2014-Aug-21 20:33N 54°18' W 130°21'0 0.0
2014-Aug-21 19:33N 54°18' W 130°21'0 0.0
2014-Aug-21 18:33N 54°18' W 130°21'1 0.5
2014-Aug-21 17:33N 54°18' W 130°21'1 0.5
2014-Aug-21 16:33N 54°18' W 130°21'0 0.0
2014-Aug-21 15:33N 54°18' W 130°21'1412.1
2014-Aug-21 14:23N 54°17' W 130°46'7 8.9
2014-Aug-21 13:33N 54°14' W 130°34'8 7.7
2014-Aug-21 12:32N 54°14' W 130°21'3 3.3
2014-Aug-21 11:33N 54°18' W 130°21'0 0.0
2014-Aug-21 10:33N 54°18' W 130°21'0 0.0
2014-Aug-21 09:33N 54°18' W 130°21'0 0.0
2014-Aug-21 08:33N 54°18' W 130°21'5 5.4
2014-Aug-21 07:33N 54°19' W 130°30'1616.1
2014-Aug-21 06:33N 54°20' W 130°58'6 5.7
2014-Aug-21 05:33N 54°19' W 130°49'1616.0
2014-Aug-21 04:34N 54°18' W 130°21'5 4.9
2014-Aug-21 03:33N 54°19' W 130°30'1110.8
2014-Aug-21 02:33N 54°19' W 130°48'1515.0
2014-Aug-21 01:33N 54°18' W 130°22'1 0.8
2014-Aug-21 00:34N 54°18' W 130°21'0 0.0
2014-Aug-20 23:33N 54°18' W 130°21'0 0.0
2014-Aug-20 22:34N 54°18' W 130°21'0 0.0
2014-Aug-20 21:34N 54°18' W 130°21'0 0.0
2014-Aug-20 20:33N 54°18' W 130°21'0 0.0
2014-Aug-20 19:33N 54°18' W 130°21'0 0.0
2014-Aug-20 18:33N 54°18' W 130°21'0 0.0
2014-Aug-20 17:33N 54°18' W 130°21'2 2.0
2014-Aug-20 16:33N 54°19' W 130°19'2 2.1
2014-Aug-20 15:34N 54°18' W 130°21'0 0.0
2014-Aug-20 14:34N 54°18' W 130°21'0 0.0
2014-Aug-20 13:34N 54°18' W 130°21'0 0.0
2014-Aug-20 12:34N 54°18' W 130°21'0 0.0
2014-Aug-20 11:33N 54°18' W 130°21'0 0.0
2014-Aug-20 10:33N 54°18' W 130°21'0 0.0
2014-Aug-20 09:34N 54°18' W 130°21'0 0.0
2014-Aug-20 08:33N 54°18' W 130°21'0 0.0
2014-Aug-20 07:33N 54°18' W 130°21'0 0.0
2014-Aug-20 06:34N 54°18' W 130°21'0 0.0
2014-Aug-20 05:34N 54°18' W 130°21'0 0.0
2014-Aug-20 04:34N 54°18' W 130°21'1414.3
2014-Aug-20 03:33N 54°17' W 130°46'5 5.2
2014-Aug-20 02:33N 54°17' W 130°37'6 6.5
2014-Aug-20 01:33N 54°16' W 130°48'0 0.4
2014-Aug-20 00:31N 54°16' W 130°48'1616.4
2014-Aug-19 23:33N 54°15' W 130°21'2 2.3
2014-Aug-19 22:33N 54°18' W 130°21'0 0.0
2014-Aug-19 21:33N 54°18' W 130°21'0 0.0
2014-Aug-19 20:33N 54°18' W 130°21'0 0.0
2014-Aug-19 19:33N 54°18' W 130°21'12 6.1
2014-Aug-19 17:33N 54°17' W 130°42'1212.2
2014-Aug-19 16:33N 54°18' W 130°21'0 0.0
2014-Aug-19 15:34N 54°18' W 130°21'0 0.0
2014-Aug-19 14:33N 54°18' W 130°21'0 0.0
2014-Aug-19 13:34N 54°18' W 130°21'0 0.0
2014-Aug-19 12:33N 54°18' W 130°21'0 0.0
2014-Aug-19 11:34N 54°18' W 130°21'0 0.0
2014-Aug-19 10:33N 54°18' W 130°21'0 0.0
2014-Aug-19 09:34N 54°18' W 130°21'0 0.0
2014-Aug-19 08:33N 54°18' W 130°21'2 1.8
2014-Aug-19 07:33N 54°19' W 130°24'2016.0
2014-Aug-19 06:19N 54°19' W 130°58'911.9
2014-Aug-19 05:33N 54°16' W 130°43'1312.7
2014-Aug-19 04:33N 54°18' W 130°21'0 0.0
2014-Aug-19 03:33N 54°18' W 130°21'0 0.0
2014-Aug-19 02:33N 54°18' W 130°21'0 0.0
2014-Aug-19 01:33N 54°18' W 130°21'0 0.0
2014-Aug-19 00:33N 54°18' W 130°21'0 0.0
2014-Aug-18 23:33N 54°18' W 130°21'0 0.0
2014-Aug-18 22:33N 54°18' W 130°21'0 0.0
2014-Aug-18 21:33N 54°18' W 130°21'0 0.0
2014-Aug-18 20:33N 54°18' W 130°21'0 0.0
2014-Aug-18 19:33N 54°18' W 130°21'0 0.0
2014-Aug-18 18:33N 54°18' W 130°21'0 0.0
2014-Aug-18 17:33N 54°18' W 130°21'  

Dump ship's entire track history